sensor_id;sensor_type;location;lat;lon;timestamp;P1;durP1;ratioP1;P2;durP2;ratioP2
80332;SDS011;69652;51.864;-2.246;2024-02-26T00:01:35;5.25;;;2.33;;
80332;SDS011;69652;51.864;-2.246;2024-02-26T00:04:01;3.72;;;1.83;;
80332;SDS011;69652;51.864;-2.246;2024-02-26T00:06:28;6.15;;;2.00;;
80332;SDS011;69652;51.864;-2.246;2024-02-26T00:08:56;2.63;;;1.88;;
80332;SDS011;69652;51.864;-2.246;2024-02-26T00:11:22;3.50;;;1.67;;
80332;SDS011;69652;51.864;-2.246;2024-02-26T00:13:47;5.03;;;1.85;;
80332;SDS011;69652;51.864;-2.246;2024-02-26T00:16:13;7.13;;;2.05;;
80332;SDS011;69652;51.864;-2.246;2024-02-26T00:18:38;4.10;;;2.03;;
80332;SDS011;69652;51.864;-2.246;2024-02-26T00:21:04;2.78;;;1.80;;
80332;SDS011;69652;51.864;-2.246;2024-02-26T00:23:29;4.60;;;2.13;;
80332;SDS011;69652;51.864;-2.246;2024-02-26T00:25:55;5.75;;;2.08;;
80332;SDS011;69652;51.864;-2.246;2024-02-26T00:28:21;4.95;;;1.90;;
80332;SDS011;69652;51.864;-2.246;2024-02-26T00:30:46;5.65;;;2.20;;
80332;SDS011;69652;51.864;-2.246;2024-02-26T00:33:12;4.95;;;2.05;;
80332;SDS011;69652;51.864;-2.246;2024-02-26T00:35:39;3.08;;;1.90;;
80332;SDS011;69652;51.864;-2.246;2024-02-26T00:38:04;5.72;;;2.20;;
80332;SDS011;69652;51.864;-2.246;2024-02-26T00:40:30;3.38;;;2.05;;
80332;SDS011;69652;51.864;-2.246;2024-02-26T00:42:56;6.47;;;1.95;;
80332;SDS011;69652;51.864;-2.246;2024-02-26T00:45:21;3.22;;;1.80;;
80332;SDS011;69652;51.864;-2.246;2024-02-26T00:47:47;3.42;;;1.70;;
80332;SDS011;69652;51.864;-2.246;2024-02-26T00:50:14;3.75;;;1.70;;
80332;SDS011;69652;51.864;-2.246;2024-02-26T00:52:40;4.32;;;2.30;;
80332;SDS011;69652;51.864;-2.246;2024-02-26T00:55:07;7.22;;;2.35;;
80332;SDS011;69652;51.864;-2.246;2024-02-26T00:57:32;6.97;;;2.00;;
80332;SDS011;69652;51.864;-2.246;2024-02-26T00:59:58;2.58;;;1.67;;
80332;SDS011;69652;51.864;-2.246;2024-02-26T01:02:24;3.45;;;2.10;;
80332;SDS011;69652;51.864;-2.246;2024-02-26T01:04:50;2.95;;;1.70;;
80332;SDS011;69652;51.864;-2.246;2024-02-26T01:07:15;2.67;;;1.30;;
80332;SDS011;69652;51.864;-2.246;2024-02-26T01:09:41;4.38;;;1.70;;
80332;SDS011;69652;51.864;-2.246;2024-02-26T01:12:07;3.50;;;1.58;;
80332;SDS011;69652;51.864;-2.246;2024-02-26T01:14:33;5.43;;;1.63;;
80332;SDS011;69652;51.864;-2.246;2024-02-26T01:16:58;3.75;;;1.60;;
80332;SDS011;69652;51.864;-2.246;2024-02-26T01:19:24;4.50;;;1.63;;
80332;SDS011;69652;51.864;-2.246;2024-02-26T01:21:49;2.97;;;1.60;;
80332;SDS011;69652;51.864;-2.246;2024-02-26T01:24:15;7.22;;;1.92;;
80332;SDS011;69652;51.864;-2.246;2024-02-26T01:26:40;8.48;;;2.13;;
80332;SDS011;69652;51.864;-2.246;2024-02-26T01:29:06;3.53;;;1.90;;
80332;SDS011;69652;51.864;-2.246;2024-02-26T01:31:31;5.55;;;1.50;;
80332;SDS011;69652;51.864;-2.246;2024-02-26T01:33:57;3.47;;;1.70;;
80332;SDS011;69652;51.864;-2.246;2024-02-26T01:36:22;7.63;;;2.13;;
80332;SDS011;69652;51.864;-2.246;2024-02-26T01:38:48;6.32;;;2.05;;
80332;SDS011;69652;51.864;-2.246;2024-02-26T01:41:13;4.63;;;1.83;;
80332;SDS011;69652;51.864;-2.246;2024-02-26T01:43:39;4.25;;;1.80;;
80332;SDS011;69652;51.864;-2.246;2024-02-26T01:46:05;6.35;;;2.45;;
80332;SDS011;69652;51.864;-2.246;2024-02-26T01:48:32;4.50;;;2.05;;
80332;SDS011;69652;51.864;-2.246;2024-02-26T01:50:58;4.10;;;2.03;;
80332;SDS011;69652;51.864;-2.246;2024-02-26T01:53:23;5.15;;;1.70;;
80332;SDS011;69652;51.864;-2.246;2024-02-26T01:55:49;3.88;;;1.90;;
80332;SDS011;69652;51.864;-2.246;2024-02-26T01:58:15;2.95;;;1.88;;
80332;SDS011;69652;51.864;-2.246;2024-02-26T02:00:41;4.80;;;2.10;;
80332;SDS011;69652;51.864;-2.246;2024-02-26T02:03:07;5.07;;;2.10;;
80332;SDS011;69652;51.864;-2.246;2024-02-26T02:05:32;4.95;;;2.30;;
80332;SDS011;69652;51.864;-2.246;2024-02-26T02:07:59;4.50;;;2.28;;
80332;SDS011;69652;51.864;-2.246;2024-02-26T02:10:26;6.68;;;2.10;;
80332;SDS011;69652;51.864;-2.246;2024-02-26T02:12:51;4.95;;;1.70;;
80332;SDS011;69652;51.864;-2.246;2024-02-26T02:15:17;3.50;;;1.70;;
80332;SDS011;69652;51.864;-2.246;2024-02-26T02:17:43;4.93;;;1.90;;
80332;SDS011;69652;51.864;-2.246;2024-02-26T02:20:09;4.72;;;2.08;;
80332;SDS011;69652;51.864;-2.246;2024-02-26T02:22:40;3.15;;;1.60;;
80332;SDS011;69652;51.864;-2.246;2024-02-26T02:25:05;6.78;;;2.25;;
80332;SDS011;69652;51.864;-2.246;2024-02-26T02:27:31;6.15;;;1.70;;
80332;SDS011;69652;51.864;-2.246;2024-02-26T02:29:56;5.88;;;1.90;;
80332;SDS011;69652;51.864;-2.246;2024-02-26T02:32:22;5.85;;;2.17;;
80332;SDS011;69652;51.864;-2.246;2024-02-26T02:34:49;5.47;;;2.03;;
80332;SDS011;69652;51.864;-2.246;2024-02-26T02:37:15;6.95;;;2.13;;
80332;SDS011;69652;51.864;-2.246;2024-02-26T02:39:40;5.00;;;2.13;;
80332;SDS011;69652;51.864;-2.246;2024-02-26T02:42:08;5.30;;;1.95;;
80332;SDS011;69652;51.864;-2.246;2024-02-26T02:44:34;4.57;;;1.95;;
80332;SDS011;69652;51.864;-2.246;2024-02-26T02:46:59;3.10;;;1.70;;
80332;SDS011;69652;51.864;-2.246;2024-02-26T02:49:24;4.25;;;2.03;;
80332;SDS011;69652;51.864;-2.246;2024-02-26T02:51:50;4.05;;;1.75;;
80332;SDS011;69652;51.864;-2.246;2024-02-26T02:54:15;5.38;;;1.77;;
80332;SDS011;69652;51.864;-2.246;2024-02-26T02:56:41;4.07;;;2.20;;
80332;SDS011;69652;51.864;-2.246;2024-02-26T02:59:06;6.32;;;2.08;;
80332;SDS011;69652;51.864;-2.246;2024-02-26T03:01:32;4.47;;;1.85;;
80332;SDS011;69652;51.864;-2.246;2024-02-26T03:03:57;4.13;;;1.75;;
80332;SDS011;69652;51.864;-2.246;2024-02-26T03:06:23;3.47;;;1.70;;
80332;SDS011;69652;51.864;-2.246;2024-02-26T03:08:49;3.50;;;1.80;;
80332;SDS011;69652;51.864;-2.246;2024-02-26T03:11:15;4.50;;;1.50;;
80332;SDS011;69652;51.864;-2.246;2024-02-26T03:13:41;3.45;;;1.38;;
80332;SDS011;69652;51.864;-2.246;2024-02-26T03:16:06;8.10;;;1.67;;
80332;SDS011;69652;51.864;-2.246;2024-02-26T03:18:32;3.83;;;1.90;;
80332;SDS011;69652;51.864;-2.246;2024-02-26T03:20:57;5.65;;;1.88;;
80332;SDS011;69652;51.864;-2.246;2024-02-26T03:23:23;6.47;;;2.03;;
80332;SDS011;69652;51.864;-2.246;2024-02-26T03:25:48;4.78;;;2.38;;
80332;SDS011;69652;51.864;-2.246;2024-02-26T03:28:14;6.45;;;2.10;;
80332;SDS011;69652;51.864;-2.246;2024-02-26T03:30:39;5.25;;;2.30;;
80332;SDS011;69652;51.864;-2.246;2024-02-26T03:33:05;5.30;;;2.50;;
80332;SDS011;69652;51.864;-2.246;2024-02-26T03:35:30;5.03;;;2.10;;
80332;SDS011;69652;51.864;-2.246;2024-02-26T03:37:55;5.18;;;2.38;;
80332;SDS011;69652;51.864;-2.246;2024-02-26T03:40:21;6.97;;;3.20;;
80332;SDS011;69652;51.864;-2.246;2024-02-26T03:42:46;3.83;;;2.25;;
80332;SDS011;69652;51.864;-2.246;2024-02-26T03:45:12;7.43;;;3.20;;
80332;SDS011;69652;51.864;-2.246;2024-02-26T03:47:38;7.57;;;2.42;;
80332;SDS011;69652;51.864;-2.246;2024-02-26T03:50:05;9.25;;;2.70;;
80332;SDS011;69652;51.864;-2.246;2024-02-26T03:52:31;6.63;;;2.38;;
80332;SDS011;69652;51.864;-2.246;2024-02-26T03:54:57;6.95;;;2.47;;
80332;SDS011;69652;51.864;-2.246;2024-02-26T03:57:23;5.05;;;2.67;;
80332;SDS011;69652;51.864;-2.246;2024-02-26T03:59:48;4.55;;;2.40;;
80332;SDS011;69652;51.864;-2.246;2024-02-26T04:02:14;5.05;;;2.53;;
80332;SDS011;69652;51.864;-2.246;2024-02-26T04:04:39;8.07;;;2.90;;
80332;SDS011;69652;51.864;-2.246;2024-02-26T04:07:05;6.05;;;2.78;;
80332;SDS011;69652;51.864;-2.246;2024-02-26T04:09:33;4.97;;;2.55;;
80332;SDS011;69652;51.864;-2.246;2024-02-26T04:11:59;6.38;;;2.83;;
80332;SDS011;69652;51.864;-2.246;2024-02-26T04:14:24;5.57;;;2.17;;
80332;SDS011;69652;51.864;-2.246;2024-02-26T04:16:50;6.55;;;3.03;;
80332;SDS011;69652;51.864;-2.246;2024-02-26T04:19:17;8.38;;;2.95;;
80332;SDS011;69652;51.864;-2.246;2024-02-26T04:21:43;5.97;;;3.15;;
80332;SDS011;69652;51.864;-2.246;2024-02-26T04:24:08;5.28;;;2.80;;
80332;SDS011;69652;51.864;-2.246;2024-02-26T04:26:34;6.18;;;3.03;;
80332;SDS011;69652;51.864;-2.246;2024-02-26T04:28:59;5.00;;;2.70;;
80332;SDS011;69652;51.864;-2.246;2024-02-26T04:31:25;6.43;;;2.80;;
80332;SDS011;69652;51.864;-2.246;2024-02-26T04:33:51;8.27;;;2.45;;
80332;SDS011;69652;51.864;-2.246;2024-02-26T04:36:17;3.70;;;2.15;;
80332;SDS011;69652;51.864;-2.246;2024-02-26T04:38:45;4.20;;;2.40;;
80332;SDS011;69652;51.864;-2.246;2024-02-26T04:41:11;4.78;;;2.40;;
80332;SDS011;69652;51.864;-2.246;2024-02-26T04:43:37;4.45;;;2.85;;
80332;SDS011;69652;51.864;-2.246;2024-02-26T04:46:06;4.90;;;2.35;;
80332;SDS011;69652;51.864;-2.246;2024-02-26T04:48:35;3.30;;;1.88;;
80332;SDS011;69652;51.864;-2.246;2024-02-26T04:51:01;6.18;;;2.45;;
80332;SDS011;69652;51.864;-2.246;2024-02-26T04:53:28;4.90;;;2.10;;
80332;SDS011;69652;51.864;-2.246;2024-02-26T04:55:54;5.60;;;2.15;;
80332;SDS011;69652;51.864;-2.246;2024-02-26T04:58:19;5.40;;;2.17;;
80332;SDS011;69652;51.864;-2.246;2024-02-26T05:00:45;4.97;;;2.40;;
80332;SDS011;69652;51.864;-2.246;2024-02-26T05:03:10;3.88;;;1.90;;
80332;SDS011;69652;51.864;-2.246;2024-02-26T05:05:38;4.47;;;2.38;;
80332;SDS011;69652;51.864;-2.246;2024-02-26T05:08:05;5.65;;;2.30;;
80332;SDS011;69652;51.864;-2.246;2024-02-26T05:10:32;7.18;;;2.15;;
80332;SDS011;69652;51.864;-2.246;2024-02-26T05:12:58;4.10;;;2.10;;
80332;SDS011;69652;51.864;-2.246;2024-02-26T05:15:23;3.50;;;1.88;;
80332;SDS011;69652;51.864;-2.246;2024-02-26T05:17:49;5.88;;;1.92;;
80332;SDS011;69652;51.864;-2.246;2024-02-26T05:20:14;7.07;;;2.38;;
80332;SDS011;69652;51.864;-2.246;2024-02-26T05:22:40;4.43;;;1.85;;
80332;SDS011;69652;51.864;-2.246;2024-02-26T05:25:06;6.93;;;2.13;;
80332;SDS011;69652;51.864;-2.246;2024-02-26T05:27:31;3.17;;;1.58;;
80332;SDS011;69652;51.864;-2.246;2024-02-26T05:29:57;5.20;;;1.88;;
80332;SDS011;69652;51.864;-2.246;2024-02-26T05:32:22;2.90;;;1.65;;
80332;SDS011;69652;51.864;-2.246;2024-02-26T05:34:48;5.28;;;2.38;;
80332;SDS011;69652;51.864;-2.246;2024-02-26T05:37:13;2.83;;;1.60;;
80332;SDS011;69652;51.864;-2.246;2024-02-26T05:39:38;4.35;;;1.77;;
80332;SDS011;69652;51.864;-2.246;2024-02-26T05:42:04;4.38;;;1.92;;
80332;SDS011;69652;51.864;-2.246;2024-02-26T05:44:30;4.97;;;1.83;;
80332;SDS011;69652;51.864;-2.246;2024-02-26T05:46:55;6.13;;;2.63;;
80332;SDS011;69652;51.864;-2.246;2024-02-26T05:49:22;4.95;;;1.58;;
80332;SDS011;69652;51.864;-2.246;2024-02-26T05:51:48;4.78;;;1.52;;
80332;SDS011;69652;51.864;-2.246;2024-02-26T05:54:13;3.08;;;1.70;;
80332;SDS011;69652;51.864;-2.246;2024-02-26T05:56:39;6.18;;;2.33;;
80332;SDS011;69652;51.864;-2.246;2024-02-26T05:59:04;2.75;;;1.63;;
80332;SDS011;69652;51.864;-2.246;2024-02-26T06:01:30;4.13;;;1.80;;
80332;SDS011;69652;51.864;-2.246;2024-02-26T06:03:56;4.53;;;1.73;;
80332;SDS011;69652;51.864;-2.246;2024-02-26T06:06:21;4.70;;;1.50;;
80332;SDS011;69652;51.864;-2.246;2024-02-26T06:08:48;3.00;;;1.75;;
80332;SDS011;69652;51.864;-2.246;2024-02-26T06:11:14;7.07;;;1.60;;
80332;SDS011;69652;51.864;-2.246;2024-02-26T06:13:40;4.07;;;1.40;;
80332;SDS011;69652;51.864;-2.246;2024-02-26T06:16:05;3.50;;;1.58;;
80332;SDS011;69652;51.864;-2.246;2024-02-26T06:18:33;3.25;;;1.60;;
80332;SDS011;69652;51.864;-2.246;2024-02-26T06:20:58;6.38;;;2.05;;
80332;SDS011;69652;51.864;-2.246;2024-02-26T06:23:24;5.90;;;1.70;;
80332;SDS011;69652;51.864;-2.246;2024-02-26T06:25:50;2.78;;;1.38;;
80332;SDS011;69652;51.864;-2.246;2024-02-26T06:28:16;3.15;;;1.27;;
80332;SDS011;69652;51.864;-2.246;2024-02-26T06:30:42;5.40;;;1.90;;
80332;SDS011;69652;51.864;-2.246;2024-02-26T06:33:07;3.95;;;1.38;;
80332;SDS011;69652;51.864;-2.246;2024-02-26T06:35:33;4.22;;;1.38;;
80332;SDS011;69652;51.864;-2.246;2024-02-26T06:37:58;2.97;;;1.40;;
80332;SDS011;69652;51.864;-2.246;2024-02-26T06:40:24;3.83;;;1.60;;
80332;SDS011;69652;51.864;-2.246;2024-02-26T06:42:50;3.67;;;1.40;;
80332;SDS011;69652;51.864;-2.246;2024-02-26T06:45:16;2.97;;;1.88;;
80332;SDS011;69652;51.864;-2.246;2024-02-26T06:47:41;5.65;;;1.67;;
80332;SDS011;69652;51.864;-2.246;2024-02-26T06:50:08;4.35;;;1.55;;
80332;SDS011;69652;51.864;-2.246;2024-02-26T06:52:34;8.07;;;1.52;;
80332;SDS011;69652;51.864;-2.246;2024-02-26T06:54:59;6.60;;;1.90;;
80332;SDS011;69652;51.864;-2.246;2024-02-26T06:57:25;5.20;;;2.53;;
80332;SDS011;69652;51.864;-2.246;2024-02-26T06:59:50;4.65;;;1.50;;
80332;SDS011;69652;51.864;-2.246;2024-02-26T07:02:16;2.97;;;1.33;;
80332;SDS011;69652;51.864;-2.246;2024-02-26T07:04:42;5.95;;;1.50;;
80332;SDS011;69652;51.864;-2.246;2024-02-26T07:07:08;5.95;;;1.70;;
80332;SDS011;69652;51.864;-2.246;2024-02-26T07:09:33;7.32;;;1.85;;
80332;SDS011;69652;51.864;-2.246;2024-02-26T07:11:59;3.50;;;1.63;;
80332;SDS011;69652;51.864;-2.246;2024-02-26T07:14:24;2.95;;;1.67;;
80332;SDS011;69652;51.864;-2.246;2024-02-26T07:16:50;3.85;;;1.52;;
80332;SDS011;69652;51.864;-2.246;2024-02-26T07:19:16;2.95;;;1.30;;
80332;SDS011;69652;51.864;-2.246;2024-02-26T07:21:41;4.30;;;1.65;;
80332;SDS011;69652;51.864;-2.246;2024-02-26T07:24:07;4.85;;;1.50;;
80332;SDS011;69652;51.864;-2.246;2024-02-26T07:26:32;3.92;;;1.27;;
80332;SDS011;69652;51.864;-2.246;2024-02-26T07:28:58;6.38;;;1.65;;
80332;SDS011;69652;51.864;-2.246;2024-02-26T07:31:25;5.80;;;1.52;;
80332;SDS011;69652;51.864;-2.246;2024-02-26T07:33:50;3.33;;;1.40;;
80332;SDS011;69652;51.864;-2.246;2024-02-26T07:36:16;7.55;;;1.65;;
80332;SDS011;69652;51.864;-2.246;2024-02-26T07:38:42;5.70;;;2.03;;
80332;SDS011;69652;51.864;-2.246;2024-02-26T07:41:07;4.15;;;1.77;;
80332;SDS011;69652;51.864;-2.246;2024-02-26T07:43:34;6.00;;;1.58;;
80332;SDS011;69652;51.864;-2.246;2024-02-26T07:45:59;2.10;;;1.20;;
80332;SDS011;69652;51.864;-2.246;2024-02-26T07:48:25;4.07;;;1.73;;
80332;SDS011;69652;51.864;-2.246;2024-02-26T07:50:50;2.10;;;1.25;;
80332;SDS011;69652;51.864;-2.246;2024-02-26T07:53:16;3.72;;;1.52;;
80332;SDS011;69652;51.864;-2.246;2024-02-26T07:55:41;3.85;;;1.65;;
80332;SDS011;69652;51.864;-2.246;2024-02-26T07:58:07;3.78;;;1.60;;
80332;SDS011;69652;51.864;-2.246;2024-02-26T08:00:32;5.80;;;1.80;;
80332;SDS011;69652;51.864;-2.246;2024-02-26T08:02:58;3.20;;;1.65;;
80332;SDS011;69652;51.864;-2.246;2024-02-26T08:05:23;4.20;;;1.70;;
80332;SDS011;69652;51.864;-2.246;2024-02-26T08:07:49;3.47;;;1.67;;
80332;SDS011;69652;51.864;-2.246;2024-02-26T08:10:15;3.25;;;1.73;;
80332;SDS011;69652;51.864;-2.246;2024-02-26T08:12:41;5.07;;;1.98;;
80332;SDS011;69652;51.864;-2.246;2024-02-26T08:15:06;4.60;;;2.00;;
80332;SDS011;69652;51.864;-2.246;2024-02-26T08:17:32;5.22;;;2.15;;
80332;SDS011;69652;51.864;-2.246;2024-02-26T08:19:59;6.15;;;2.30;;
80332;SDS011;69652;51.864;-2.246;2024-02-26T08:22:24;5.93;;;2.58;;
80332;SDS011;69652;51.864;-2.246;2024-02-26T08:24:50;4.57;;;2.17;;
80332;SDS011;69652;51.864;-2.246;2024-02-26T08:27:15;5.13;;;2.22;;
80332;SDS011;69652;51.864;-2.246;2024-02-26T08:29:41;5.85;;;2.40;;
80332;SDS011;69652;51.864;-2.246;2024-02-26T08:32:06;3.97;;;2.22;;
80332;SDS011;69652;51.864;-2.246;2024-02-26T08:34:32;3.58;;;1.90;;
80332;SDS011;69652;51.864;-2.246;2024-02-26T08:36:58;7.32;;;2.25;;
80332;SDS011;69652;51.864;-2.246;2024-02-26T08:39:23;6.82;;;2.35;;
80332;SDS011;69652;51.864;-2.246;2024-02-26T08:41:48;5.55;;;2.38;;
80332;SDS011;69652;51.864;-2.246;2024-02-26T08:44:14;5.82;;;2.50;;
80332;SDS011;69652;51.864;-2.246;2024-02-26T08:46:41;5.43;;;2.58;;
80332;SDS011;69652;51.864;-2.246;2024-02-26T08:49:06;5.38;;;2.13;;
80332;SDS011;69652;51.864;-2.246;2024-02-26T08:51:32;4.00;;;2.10;;
80332;SDS011;69652;51.864;-2.246;2024-02-26T08:53:57;4.95;;;2.55;;
80332;SDS011;69652;51.864;-2.246;2024-02-26T08:56:22;3.80;;;2.30;;
80332;SDS011;69652;51.864;-2.246;2024-02-26T08:58:48;4.30;;;2.22;;
80332;SDS011;69652;51.864;-2.246;2024-02-26T09:01:15;5.28;;;2.88;;
80332;SDS011;69652;51.864;-2.246;2024-02-26T09:03:41;5.10;;;2.55;;
80332;SDS011;69652;51.864;-2.246;2024-02-26T09:06:07;4.10;;;2.20;;
80332;SDS011;69652;51.864;-2.246;2024-02-26T09:08:32;7.05;;;2.22;;
80332;SDS011;69652;51.864;-2.246;2024-02-26T09:10:58;4.38;;;2.20;;
80332;SDS011;69652;51.864;-2.246;2024-02-26T09:13:24;6.07;;;2.55;;
80332;SDS011;69652;51.864;-2.246;2024-02-26T09:15:49;6.10;;;2.40;;
80332;SDS011;69652;51.864;-2.246;2024-02-26T09:18:15;6.03;;;2.45;;
80332;SDS011;69652;51.864;-2.246;2024-02-26T09:20:41;5.47;;;2.42;;
80332;SDS011;69652;51.864;-2.246;2024-02-26T09:23:06;8.13;;;2.45;;
80332;SDS011;69652;51.864;-2.246;2024-02-26T09:25:32;6.75;;;2.35;;
80332;SDS011;69652;51.864;-2.246;2024-02-26T09:27:58;7.93;;;2.67;;
80332;SDS011;69652;51.864;-2.246;2024-02-26T09:30:24;5.30;;;2.13;;
80332;SDS011;69652;51.864;-2.246;2024-02-26T09:32:50;8.60;;;2.60;;
80332;SDS011;69652;51.864;-2.246;2024-02-26T09:35:15;8.27;;;2.65;;
80332;SDS011;69652;51.864;-2.246;2024-02-26T09:37:41;9.57;;;2.55;;
80332;SDS011;69652;51.864;-2.246;2024-02-26T09:40:07;6.63;;;2.25;;
80332;SDS011;69652;51.864;-2.246;2024-02-26T09:42:36;5.22;;;2.70;;
80332;SDS011;69652;51.864;-2.246;2024-02-26T09:45:04;4.85;;;2.25;;
80332;SDS011;69652;51.864;-2.246;2024-02-26T09:47:34;7.05;;;3.17;;
80332;SDS011;69652;51.864;-2.246;2024-02-26T09:50:01;7.05;;;2.67;;
80332;SDS011;69652;51.864;-2.246;2024-02-26T09:52:28;5.97;;;2.58;;
80332;SDS011;69652;51.864;-2.246;2024-02-26T09:54:58;5.35;;;3.10;;
80332;SDS011;69652;51.864;-2.246;2024-02-26T09:57:24;6.85;;;2.80;;
80332;SDS011;69652;51.864;-2.246;2024-02-26T09:59:51;4.80;;;2.42;;
80332;SDS011;69652;51.864;-2.246;2024-02-26T10:02:19;5.45;;;2.45;;
80332;SDS011;69652;51.864;-2.246;2024-02-26T10:04:46;9.38;;;2.83;;
80332;SDS011;69652;51.864;-2.246;2024-02-26T10:07:14;3.75;;;2.38;;
80332;SDS011;69652;51.864;-2.246;2024-02-26T10:09:40;5.28;;;2.50;;
80332;SDS011;69652;51.864;-2.246;2024-02-26T10:12:07;5.03;;;2.20;;
80332;SDS011;69652;51.864;-2.246;2024-02-26T10:14:36;3.30;;;1.98;;
80332;SDS011;69652;51.864;-2.246;2024-02-26T10:17:01;5.35;;;2.22;;
80332;SDS011;69652;51.864;-2.246;2024-02-26T10:19:27;6.90;;;2.40;;
80332;SDS011;69652;51.864;-2.246;2024-02-26T10:21:57;4.32;;;2.45;;
80332;SDS011;69652;51.864;-2.246;2024-02-26T10:24:24;7.00;;;2.63;;
80332;SDS011;69652;51.864;-2.246;2024-02-26T10:26:50;7.53;;;2.72;;
80332;SDS011;69652;51.864;-2.246;2024-02-26T10:29:20;5.43;;;3.00;;
80332;SDS011;69652;51.864;-2.246;2024-02-26T10:31:46;7.40;;;2.35;;
80332;SDS011;69652;51.864;-2.246;2024-02-26T10:34:12;4.95;;;2.50;;
80332;SDS011;69652;51.864;-2.246;2024-02-26T10:36:39;4.03;;;2.20;;
80332;SDS011;69652;51.864;-2.246;2024-02-26T10:39:06;5.88;;;2.50;;
80332;SDS011;69652;51.864;-2.246;2024-02-26T10:41:35;5.07;;;2.28;;
80332;SDS011;69652;51.864;-2.246;2024-02-26T10:44:01;6.65;;;2.70;;
80332;SDS011;69652;51.864;-2.246;2024-02-26T10:46:26;3.80;;;2.50;;
80332;SDS011;69652;51.864;-2.246;2024-02-26T10:48:52;6.05;;;2.58;;
80332;SDS011;69652;51.864;-2.246;2024-02-26T10:51:20;5.80;;;2.08;;
80332;SDS011;69652;51.864;-2.246;2024-02-26T10:53:51;3.97;;;2.25;;
80332;SDS011;69652;51.864;-2.246;2024-02-26T10:56:19;5.88;;;2.50;;
80332;SDS011;69652;51.864;-2.246;2024-02-26T10:58:47;4.28;;;2.60;;
80332;SDS011;69652;51.864;-2.246;2024-02-26T11:01:13;4.60;;;2.13;;
80332;SDS011;69652;51.864;-2.246;2024-02-26T11:03:38;8.45;;;4.72;;
80332;SDS011;69652;51.864;-2.246;2024-02-26T11:06:06;12.65;;;4.35;;
80332;SDS011;69652;51.864;-2.246;2024-02-26T11:08:32;9.32;;;4.40;;
80332;SDS011;69652;51.864;-2.246;2024-02-26T11:10:58;11.98;;;3.88;;
80332;SDS011;69652;51.864;-2.246;2024-02-26T11:13:26;6.95;;;3.15;;
80332;SDS011;69652;51.864;-2.246;2024-02-26T11:15:55;8.75;;;3.70;;
80332;SDS011;69652;51.864;-2.246;2024-02-26T11:18:22;7.93;;;4.95;;
80332;SDS011;69652;51.864;-2.246;2024-02-26T11:20:49;10.10;;;3.95;;
80332;SDS011;69652;51.864;-2.246;2024-02-26T11:23:16;4.80;;;2.65;;
80332;SDS011;69652;51.864;-2.246;2024-02-26T11:25:41;6.13;;;2.40;;
80332;SDS011;69652;51.864;-2.246;2024-02-26T11:28:12;5.88;;;3.40;;
80332;SDS011;69652;51.864;-2.246;2024-02-26T11:30:42;7.32;;;3.70;;
80332;SDS011;69652;51.864;-2.246;2024-02-26T11:33:10;10.52;;;5.07;;
80332;SDS011;69652;51.864;-2.246;2024-02-26T11:35:37;8.00;;;3.63;;
80332;SDS011;69652;51.864;-2.246;2024-02-26T11:38:04;7.60;;;3.03;;
80332;SDS011;69652;51.864;-2.246;2024-02-26T11:40:31;6.22;;;3.53;;
80332;SDS011;69652;51.864;-2.246;2024-02-26T11:42:58;6.63;;;3.20;;
80332;SDS011;69652;51.864;-2.246;2024-02-26T11:48:10;7.82;;;3.20;;
80332;SDS011;69652;51.864;-2.246;2024-02-26T11:53:27;6.38;;;3.10;;
80332;SDS011;69652;51.864;-2.246;2024-02-26T11:58:43;12.35;;;3.53;;
80332;SDS011;69652;51.864;-2.246;2024-02-26T12:04:07;8.35;;;3.53;;
80332;SDS011;69652;51.864;-2.246;2024-02-26T12:09:31;9.45;;;3.88;;
80332;SDS011;69652;51.864;-2.246;2024-02-26T12:12:02;6.60;;;2.92;;
80332;SDS011;69652;51.864;-2.246;2024-02-26T12:14:29;6.80;;;2.72;;
80332;SDS011;69652;51.864;-2.246;2024-02-26T12:16:55;6.68;;;2.70;;
80332;SDS011;69652;51.864;-2.246;2024-02-26T12:19:21;5.05;;;2.40;;
80332;SDS011;69652;51.864;-2.246;2024-02-26T12:21:51;7.13;;;2.80;;
80332;SDS011;69652;51.864;-2.246;2024-02-26T12:24:20;7.78;;;3.40;;
80332;SDS011;69652;51.864;-2.246;2024-02-26T12:26:46;8.25;;;2.45;;
80332;SDS011;69652;51.864;-2.246;2024-02-26T12:29:12;4.32;;;1.40;;
80332;SDS011;69652;51.864;-2.246;2024-02-26T12:31:38;3.65;;;1.10;;
80332;SDS011;69652;51.864;-2.246;2024-02-26T12:34:06;5.50;;;1.90;;
80332;SDS011;69652;51.864;-2.246;2024-02-26T12:36:33;4.97;;;1.42;;
80332;SDS011;69652;51.864;-2.246;2024-02-26T12:39:00;4.68;;;1.38;;
80332;SDS011;69652;51.864;-2.246;2024-02-26T12:41:27;3.95;;;1.52;;
80332;SDS011;69652;51.864;-2.246;2024-02-26T12:43:54;5.18;;;1.45;;
80332;SDS011;69652;51.864;-2.246;2024-02-26T12:46:20;4.95;;;1.55;;
80332;SDS011;69652;51.864;-2.246;2024-02-26T12:48:46;4.28;;;1.52;;
80332;SDS011;69652;51.864;-2.246;2024-02-26T12:51:15;6.47;;;1.45;;
80332;SDS011;69652;51.864;-2.246;2024-02-26T12:53:43;3.00;;;0.98;;
80332;SDS011;69652;51.864;-2.246;2024-02-26T12:56:10;3.50;;;0.82;;
80332;SDS011;69652;51.864;-2.246;2024-02-26T12:58:39;4.30;;;1.15;;
80332;SDS011;69652;51.864;-2.246;2024-02-26T13:01:06;4.43;;;1.23;;
80332;SDS011;69652;51.864;-2.246;2024-02-26T13:03:33;7.05;;;2.03;;
80332;SDS011;69652;51.864;-2.246;2024-02-26T13:06:01;2.63;;;0.90;;
80332;SDS011;69652;51.864;-2.246;2024-02-26T13:08:28;5.47;;;2.05;;
80332;SDS011;69652;51.864;-2.246;2024-02-26T13:10:53;4.88;;;1.55;;
80332;SDS011;69652;51.864;-2.246;2024-02-26T13:13:19;4.10;;;1.00;;
80332;SDS011;69652;51.864;-2.246;2024-02-26T13:15:48;3.65;;;1.05;;
80332;SDS011;69652;51.864;-2.246;2024-02-26T13:18:14;5.55;;;1.30;;
80332;SDS011;69652;51.864;-2.246;2024-02-26T13:20:40;6.03;;;1.30;;
80332;SDS011;69652;51.864;-2.246;2024-02-26T13:23:06;5.40;;;1.13;;
80332;SDS011;69652;51.864;-2.246;2024-02-26T13:25:34;3.50;;;0.90;;
80332;SDS011;69652;51.864;-2.246;2024-02-26T13:30:41;5.10;;;1.50;;
80332;SDS011;69652;51.864;-2.246;2024-02-26T13:33:10;4.10;;;1.35;;
80332;SDS011;69652;51.864;-2.246;2024-02-26T13:35:38;3.65;;;1.23;;
80332;SDS011;69652;51.864;-2.246;2024-02-26T13:38:04;1.77;;;0.80;;
80332;SDS011;69652;51.864;-2.246;2024-02-26T13:40:33;3.92;;;0.95;;
80332;SDS011;69652;51.864;-2.246;2024-02-26T13:43:01;3.67;;;1.25;;
80332;SDS011;69652;51.864;-2.246;2024-02-26T13:45:28;2.80;;;0.85;;
80332;SDS011;69652;51.864;-2.246;2024-02-26T13:47:53;3.90;;;1.10;;
80332;SDS011;69652;51.864;-2.246;2024-02-26T13:50:19;4.30;;;1.35;;
80332;SDS011;69652;51.864;-2.246;2024-02-26T13:52:46;3.78;;;1.17;;
80332;SDS011;69652;51.864;-2.246;2024-02-26T13:55:12;4.00;;;1.17;;
80332;SDS011;69652;51.864;-2.246;2024-02-26T13:57:41;2.28;;;0.80;;
80332;SDS011;69652;51.864;-2.246;2024-02-26T14:00:07;3.30;;;0.90;;
80332;SDS011;69652;51.864;-2.246;2024-02-26T14:02:35;2.13;;;0.80;;
80332;SDS011;69652;51.864;-2.246;2024-02-26T14:05:01;1.98;;;0.80;;
80332;SDS011;69652;51.864;-2.246;2024-02-26T14:07:29;5.47;;;1.05;;
80332;SDS011;69652;51.864;-2.246;2024-02-26T14:09:57;7.53;;;2.00;;
80332;SDS011;69652;51.864;-2.246;2024-02-26T14:12:23;4.22;;;1.23;;
80332;SDS011;69652;51.864;-2.246;2024-02-26T14:14:49;3.47;;;1.20;;
80332;SDS011;69652;51.864;-2.246;2024-02-26T14:17:14;2.63;;;0.98;;
80332;SDS011;69652;51.864;-2.246;2024-02-26T14:19:40;5.07;;;1.33;;
80332;SDS011;69652;51.864;-2.246;2024-02-26T14:22:12;4.03;;;1.48;;
80332;SDS011;69652;51.864;-2.246;2024-02-26T14:24:38;4.72;;;1.67;;
80332;SDS011;69652;51.864;-2.246;2024-02-26T14:27:04;4.45;;;1.90;;
80332;SDS011;69652;51.864;-2.246;2024-02-26T14:29:31;5.07;;;2.13;;
80332;SDS011;69652;51.864;-2.246;2024-02-26T14:31:57;11.45;;;5.90;;
80332;SDS011;69652;51.864;-2.246;2024-02-26T14:34:22;5.88;;;3.00;;
80332;SDS011;69652;51.864;-2.246;2024-02-26T14:36:48;5.85;;;2.47;;
80332;SDS011;69652;51.864;-2.246;2024-02-26T14:39:13;8.32;;;2.95;;
80332;SDS011;69652;51.864;-2.246;2024-02-26T14:41:39;7.35;;;2.97;;
80332;SDS011;69652;51.864;-2.246;2024-02-26T14:44:05;6.00;;;2.67;;